Latest Weather Observations for Salmon Gums RS

IDW60801

Issued at 11:35 am WST Wednesday 23 July 2014 (issued every 30 minutes, with the page automatically refreshed every 10 minutes)

About weather observations | Map of weather stations | Latest weather observations for WA | Other Formats
Station Details ID: 012071 Name: SALMON GUMS RES.STN. Lat: -32.99 Lon: 121.62 Height: 249.0 m
Data from the previous 72 hours. | See also: Recent months at Salmon Gums RS
Date/Time
WST
Temp
°C
App
Temp
°C
Dew
Point
Rel
Hum
%
Delta-T
°C
Wind Press
QNH
hPa
Press
MSL
hPa
Rain
since 9 am
mm
Dir
 
Spd
km/h
Gust
km/h
Spd
kts
Gust
kts
23/11:30am 12.0 10.5 10.6 91 0.7 W 9 20 5 11 - - 1.0
23/11:00am 12.0 9.6 10.2 89 0.9 W 13 20 7 11 - - 0.4
23/10:30am 12.0 10.0 10.1 88 1.0 W 11 17 6 9 - - 0.0
23/10:00am 11.6 8.8 10.0 90 0.8 WSW 15 20 8 11 - - 0.0
23/09:30am 11.5 9.9 10.2 92 0.7 WSW 9 20 5 11 - - 0.0
23/09:00am 10.5 8.7 9.6 94 0.5 W 9 15 5 8 - - 1.4
23/08:30am 10.0 8.5 9.1 94 0.5 W 7 13 4 7 - - 1.4
23/08:00am 9.5 7.9 8.6 94 0.4 W 7 11 4 6 - - 1.4
23/07:30am 9.2 7.1 8.3 94 0.4 W 9 17 5 9 - - 1.4
23/07:00am 9.1 6.6 8.2 94 0.4 W 11 19 6 10 - - 1.4
23/06:30am 8.9 6.4 8.0 94 0.4 W 11 17 6 9 - - 1.4
23/06:00am 8.8 6.6 7.9 94 0.4 W 9 15 5 8 - - 1.4
23/05:30am 8.7 6.4 7.6 93 0.5 W 9 13 5 7 - - 1.4
23/05:00am 8.4 6.1 7.3 93 0.5 W 9 15 5 8 - - 1.4
23/04:30am 8.3 5.6 7.2 93 0.5 W 11 19 6 10 - - 1.4
23/04:00am 8.2 5.1 7.1 93 0.5 W 13 19 7 10 - - 1.4
23/03:30am 8.0 4.4 6.9 93 0.5 W 15 24 8 13 - - 1.4
23/03:00am 8.0 4.0 6.8 92 0.6 W 17 26 9 14 - - 1.4
23/02:30am 8.0 4.8 6.8 92 0.6 W 13 22 7 12 - - 1.4
23/02:00am 8.0 4.7 6.6 91 0.7 W 13 20 7 11 - - 1.4
23/01:30am 7.8 4.1 6.3 90 0.7 W 15 24 8 13 - - 1.4
23/01:00am 7.6 3.9 6.1 90 0.7 W 15 24 8 13 - - 1.4
23/12:30am 7.5 4.1 5.8 89 0.8 W 13 22 7 12 - - 1.4
23/12:00am 7.6 4.2 5.7 88 0.9 WNW 13 20 7 11 - - 1.4
 
Date/Time
WST
Temp
°C
App
Temp
°C
Dew
Point
Rel
Hum
%
Delta-T
°C
Wind Press
QNH
hPa
Press
MSL
hPa
Rain
since 9 am
mm
Dir
 
Spd
km/h
Gust
km/h
Spd
kts
Gust
kts
22/11:30pm 8.0 3.9 6.0 87 0.9 W 17 24 9 13 - - 1.4
22/11:00pm 8.2 4.1 6.0 86 1.0 W 17 30 9 16 - - 1.4
22/10:30pm 8.5 4.7 6.0 84 1.2 W 15 22 8 12 - - 1.4
22/10:00pm 8.9 5.6 6.3 84 1.2 WNW 13 20 7 11 - - 1.4
22/09:30pm 9.0 6.2 7.1 88 0.9 WNW 11 15 6 8 - - 1.4
22/09:00pm 9.5 7.2 7.4 87 1.0 WNW 9 15 5 8 - - 1.4
22/08:30pm 9.6 7.7 7.5 87 1.0 WNW 7 13 4 7 - - 1.4
22/08:00pm 9.6 7.3 7.5 87 1.0 W 9 15 5 8 - - 1.4
22/07:30pm 9.7 7.0 7.5 86 1.1 W 11 19 6 10 - - 1.4
22/07:00pm 9.9 7.2 7.5 85 1.2 W 11 20 6 11 - - 1.4
22/06:30pm 9.9 6.5 7.5 85 1.2 WNW 15 24 8 13 - - 1.4
22/06:00pm 10.0 7.7 7.6 85 1.2 W 9 17 5 9 - - 1.4
22/05:30pm 10.1 7.4 7.2 82 1.4 W 11 17 6 9 - - 1.4
22/05:00pm 11.0 7.7 6.6 74 2.1 W 13 24 7 13 - - 1.4
22/04:30pm 11.4 8.2 6.7 73 2.3 W 13 22 7 12 - - 1.4
22/04:00pm 11.6 7.6 6.5 71 2.4 W 17 24 9 13 - - 1.4
22/03:30pm 12.2 8.5 6.3 67 2.8 W 15 28 8 15 - - 1.4
22/03:00pm 11.9 8.9 7.6 75 2.1 W 13 22 7 12 - - 1.4
22/02:30pm 11.7 7.6 7.8 77 1.9 W 19 30 10 16 - - 1.4
22/02:00pm 11.2 6.7 7.1 76 2.0 W 20 32 11 17 - - 1.4
22/01:30pm 11.9 6.9 6.4 69 2.6 NW 22 35 12 19 - - 1.4
22/01:00pm 13.3 9.0 6.9 65 3.1 NW 19 30 10 16 - - 1.4
22/12:30pm 13.2 11.0 9.3 77 2.0 NNW 11 17 6 9 - - 1.4
22/12:00pm 12.8 10.1 8.9 77 2.0 N 13 19 7 10 - - 1.4
22/11:30am 12.9 9.5 9.0 77 2.0 NNW 17 30 9 16 - - 1.4
22/11:00am 11.6 9.4 9.2 85 1.2 N 11 19 6 10 - - 1.4
22/10:30am 11.2 8.0 8.6 84 1.3 N 15 28 8 15 - - 1.2
22/10:00am 10.4 7.1 8.2 86 1.1 NNE 15 20 8 11 - - 1.2
22/09:30am 10.8 6.3 7.1 78 1.8 N 20 32 11 17 - - 0.4
22/09:00am 12.0 7.6 6.7 70 2.6 NNE 19 28 10 15 - - 0.0
22/08:30am 11.3 7.3 6.6 73 2.3 NNE 17 24 9 13 - - 0.0
22/08:00am 10.1 6.4 6.1 76 1.9 NNE 15 20 8 11 - - 0.0
22/07:30am 9.5 5.7 5.9 78 1.7 NNE 15 22 8 12 - - 0.0
22/07:00am 9.3 5.5 5.9 79 1.6 NNE 15 20 8 11 - - 0.0
22/06:30am 9.1 6.1 5.8 80 1.5 NNE 11 19 6 10 - - 0.0
22/06:00am 9.2 6.2 5.9 80 1.5 NE 11 19 6 10 - - 0.0
22/05:30am 9.1 6.1 6.0 81 1.4 NNE 11 15 6 8 - - 0.0
22/05:00am 8.8 6.6 6.1 83 1.3 NE 7 11 4 6 - - 0.0
22/04:30am 9.7 7.1 5.9 77 1.8 NE 9 11 5 6 - - 0.0
22/04:00am 10.8 8.2 6.0 72 2.3 NNE 9 13 5 7 - - 0.0
22/03:30am 11.5 8.5 6.0 69 2.6 N 11 19 6 10 - - 0.0
22/03:00am 11.7 8.7 6.0 68 2.7 N 11 13 6 7 - - 0.0
22/02:30am 11.5 8.9 6.0 69 2.6 N 9 13 5 7 - - 0.0
22/02:00am 10.2 8.2 7.1 81 1.5 N 7 11 4 6 - - 0.0
22/01:30am 8.8 6.8 6.3 84 1.2 N 6 9 3 5 - - 0.0
22/01:00am 7.0 4.5 5.0 87 0.9 N 7 9 4 5 - - 0.0
22/12:30am 7.2 4.9 5.5 89 0.8 NNW 7 9 4 5 - - 0.0
22/12:00am 5.3 2.6 3.6 89 0.7 NNW 7 9 4 5 - - 0.0
 
Date/Time
WST
Temp
°C
App
Temp
°C
Dew
Point
Rel
Hum
%
Delta-T
°C
Wind Press
QNH
hPa
Press
MSL
hPa
Rain
since 9 am
mm
Dir
 
Spd
km/h
Gust
km/h
Spd
kts
Gust
kts
21/11:30pm 6.0 3.0 4.0 87 0.9 NW 9 9 5 5 - - 0.0
21/11:00pm 7.4 4.9 5.0 85 1.1 N 7 11 4 6 - - 0.0
21/10:30pm 7.7 5.0 5.7 87 0.9 N 9 11 5 6 - - 0.0
21/10:00pm 7.2 4.8 5.3 88 0.9 N 7 9 4 5 - - 0.0
21/09:30pm 6.5 4.1 4.5 87 0.9 NNW 6 7 3 4 - - 0.0
21/09:00pm 7.9 5.5 5.4 84 1.1 NNW 7 9 4 5 - - 0.0
21/08:30pm 9.2 6.9 5.9 80 1.5 NNW 7 11 4 6 - - 0.0
21/08:00pm 9.8 6.7 5.6 75 1.9 NNW 11 20 6 11 - - 0.0
21/07:30pm 9.6 7.2 5.4 75 1.9 NNW 7 7 4 4 - - 0.0
21/07:00pm 10.9 8.6 5.9 71 2.4 N 7 9 4 5 - - 0.0
21/06:30pm 10.8 8.1 5.8 71 2.3 N 9 11 5 6 - - 0.0
21/06:00pm 11.6 9.0 5.9 68 2.7 N 9 11 5 6 - - 0.0
21/05:30pm 12.9 10.3 6.0 63 3.3 N 9 11 5 6 - - 0.0
21/05:00pm 14.6 12.0 6.2 57 4.1 N 9 13 5 7 - - 0.0
21/04:30pm 16.3 13.3 5.9 50 5.1 N 11 17 6 9 - - 0.0
21/04:00pm 17.3 13.8 5.6 46 5.7 NNW 13 19 7 10 - - 0.0
21/03:30pm 17.3 14.3 5.9 47 5.6 N 11 15 6 8 - - 0.0
21/03:00pm 17.7 16.2 6.6 48 5.6 NNW 4 9 2 5 - - 0.0
21/02:30pm 18.2 16.2 7.0 48 5.7 NNW 7 13 4 7 - - 0.0
21/02:00pm 17.4 14.1 6.6 49 5.4 NW 13 22 7 12 - - 0.0
21/01:30pm 17.0 14.5 8.2 56 4.5 NW 11 17 6 9 - - 0.0
21/01:00pm 17.5 15.0 8.1 54 4.9 NW 11 19 6 10 - - 0.0
21/12:30pm 16.5 13.9 7.7 56 4.5 NW 11 20 6 11 - - 0.0
21/12:00pm 16.3 14.3 8.5 60 4.0 WNW 9 13 5 7 - - 0.0
21/11:30am 15.4 13.1 8.9 65 3.4 W 11 20 6 11 - - 0.0
21/11:00am 14.5 12.3 9.3 71 2.7 NW 11 17 6 9 - - 0.0
21/10:30am 13.5 11.3 9.4 76 2.1 WNW 11 17 6 9 - - 0.0
21/10:00am 12.2 10.0 9.4 83 1.4 NW 11 15 6 8 - - 0.0
21/09:30am 10.2 8.1 8.3 88 0.9 NW 9 15 5 8 - - 0.0
21/09:00am 9.2 6.3 8.0 92 0.6 NW 13 19 7 10 - - 0.8
21/08:30am 8.0 5.6 7.2 95 0.4 WNW 9 15 5 8 - - 0.8
21/08:00am 7.0 4.1 6.3 95 0.3 NW 11 15 6 8 - - 0.8
21/07:30am 5.2 2.7 4.6 96 0.3 WNW 7 9 4 5 - - 0.8
21/07:00am 4.3 1.2 3.6 95 0.3 NW 9 13 5 7 - - 0.8
21/06:30am 4.6 1.6 4.0 96 0.3 NW 9 15 5 8 - - 0.8
21/06:00am 4.9 1.5 4.2 95 0.3 WNW 11 15 6 8 - - 0.8
21/05:30am 5.4 2.1 4.8 96 0.3 NW 11 15 6 8 - - 0.8
21/05:00am 4.9 1.9 4.3 96 0.3 NW 9 13 5 7 - - 0.8
21/04:30am 4.7 1.7 4.0 95 0.3 NW 9 11 5 6 - - 0.6
21/04:00am 4.7 2.1 4.0 95 0.3 NW 7 11 4 6 - - 0.6
21/03:30am 4.8 2.2 4.1 95 0.3 NW 7 11 4 6 - - 0.6
21/03:00am 5.2 2.7 4.5 95 0.3 WNW 7 11 4 6 - - 0.6
21/02:30am 5.3 2.8 4.6 95 0.3 NW 7 11 4 6 - - 0.6
21/02:00am 5.4 2.1 4.8 96 0.3 NW 11 13 6 7 - - 0.6
21/01:30am 2.5 -0.9 1.8 95 0.3 NW 9 11 5 6 - - 0.6
21/01:00am 1.8 -1.2 1.1 95 0.3 NW 6 7 3 4 - - 0.6
21/12:30am 1.9 -0.7 1.2 95 0.3 NW 4 7 2 4 - - 0.6
21/12:00am 2.3 0.6 1.6 95 0.3 CALM 0 0 0 0 - - 0.6
 
Date/Time
WST
Temp
°C
App
Temp
°C
Dew
Point
Rel
Hum
%
Delta-T
°C
Wind Press
QNH
hPa
Press
MSL
hPa
Rain
since 9 am
mm
Dir
 
Spd
km/h
Gust
km/h
Spd
kts
Gust
kts
20/11:30pm 2.9 1.2 2.0 94 0.4 CALM 0 0 0 0 - - 0.6
20/11:00pm 3.3 0.9 2.4 94 0.4 NNW 4 6 2 3 - - 0.6
20/10:30pm 4.2 2.4 3.2 93 0.4 NNW 2 4 1 2 - - 0.6
20/10:00pm 4.9 3.2 4.0 94 0.4 NNW 2 4 1 2 - - 0.6
20/09:30pm 5.3 4.0 4.3 93 0.4 CALM 0 0 0 0 - - 0.6
20/09:00pm 6.5 5.1 5.5 93 0.4 NW 2 4 1 2 - - 0.6
20/08:30pm 7.0 5.3 5.9 93 0.5 NW 4 6 2 3 - - 0.6
20/08:00pm 7.0 4.9 5.9 93 0.5 NW 6 11 3 6 - - 0.6
20/07:30pm 6.9 4.6 5.7 92 0.5 WNW 7 9 4 5 - - 0.6
20/07:00pm 7.6 6.3 6.1 90 0.7 SE 2 2 1 1 - - 0.6
20/06:30pm 8.6 7.1 6.6 87 0.9 SE 4 6 2 3 - - 0.6
20/06:00pm 10.4 8.9 8.3 87 1.0 SE 6 7 3 4 - - 0.6
20/05:30pm 11.0 10.3 8.6 85 1.2 NNE 2 4 1 2 - - 0.6
20/05:00pm 11.7 9.0 8.9 83 1.4 NNW 13 17 7 9 - - 0.4
20/04:30pm 14.7 12.8 7.5 62 3.6 NNW 7 9 4 5 - - 0.2
20/04:00pm 14.9 13.2 7.7 62 3.6 NW 6 7 3 4 - - 0.2
20/03:30pm 15.8 15.1 7.1 56 4.4 CALM 0 4 0 2 - - 0.2
20/03:00pm 15.6 13.9 7.4 58 4.1 N 6 9 3 5 - - 0.2
20/02:30pm 15.9 14.4 8.4 61 3.9 NNE 6 9 3 5 - - 0.2
20/02:00pm 14.5 13.6 9.3 71 2.7 NNE 4 9 2 5 - - 0.2
20/01:30pm 13.8 12.2 8.8 72 2.6 NW 7 11 4 6 - - 0.2
20/01:00pm 13.5 11.6 9.2 75 2.2 NNW 9 15 5 8 - - 0.2
20/12:30pm 14.5 12.1 8.7 68 3.0 N 11 15 6 8 - - 0.0
20/12:00pm 14.8 13.0 8.1 64 3.4 NNE 7 11 4 6 - - 0.0

Other Formats:

Comma delimited format used in spreadsheet applications
http://www.bom.gov.au/fwo/IDW60801/IDW60801.95639.axf

JavaScript Object Notation format (JSON) in row-major order
http://www.bom.gov.au/fwo/IDW60801/IDW60801.95639.json